createdAt,value
2022-10-16T00:00:48.998Z,1.10
2022-10-16T00:03:15.558Z,1.17
2022-10-16T00:05:44.155Z,1.00
2022-10-16T00:08:12.923Z,0.90
2022-10-16T00:10:40.129Z,0.95
2022-10-16T00:15:57.178Z,1.00
2022-10-16T00:18:24.256Z,1.00
2022-10-16T00:20:50.987Z,0.90
2022-10-16T00:23:17.705Z,1.00
2022-10-16T00:25:44.411Z,0.88
2022-10-16T00:28:11.159Z,1.52
2022-10-16T00:30:40.944Z,1.45
2022-10-16T00:33:07.570Z,1.38
2022-10-16T00:35:34.159Z,0.88
2022-10-16T00:38:00.785Z,1.10
2022-10-16T00:40:29.333Z,0.98
2022-10-16T00:42:56.028Z,1.00
2022-10-16T00:45:22.642Z,1.05
2022-10-16T00:47:52.462Z,1.05
2022-10-16T00:50:28.139Z,1.60
2022-10-16T00:52:56.070Z,1.30
2022-10-16T00:55:23.368Z,1.23
2022-10-16T00:57:50.824Z,0.70
2022-10-16T01:00:21.626Z,1.08
2022-10-16T01:02:55.852Z,1.48
2022-10-16T01:05:24.786Z,1.20
2022-10-16T01:08:13.801Z,1.38
2022-10-16T01:10:58.290Z,0.80
2022-10-16T01:13:47.674Z,0.70
2022-10-16T01:18:58.517Z,0.85
2022-10-16T01:21:34.297Z,0.88
2022-10-16T01:24:32.283Z,0.88
2022-10-16T01:27:09.090Z,1.08
2022-10-16T01:29:47.737Z,1.20
2022-10-16T01:32:31.743Z,0.80
2022-10-16T01:35:06.725Z,0.90
2022-10-16T01:37:58.596Z,0.63
2022-10-16T01:40:28.762Z,0.70
2022-10-16T01:43:02.872Z,0.77
2022-10-16T01:45:31.759Z,0.75
2022-10-16T01:48:01.551Z,0.90
2022-10-16T01:50:28.662Z,0.60
2022-10-16T01:52:59.364Z,0.70
2022-10-16T01:55:36.647Z,0.77
2022-10-16T01:58:06.135Z,0.70
2022-10-16T02:03:03.423Z,0.80
2022-10-16T02:05:38.269Z,0.82
2022-10-16T02:08:05.918Z,0.70
2022-10-16T02:10:33.372Z,0.90
2022-10-16T02:13:08.564Z,0.88
2022-10-16T02:15:35.326Z,0.88
2022-10-16T02:18:06.168Z,0.70
2022-10-16T02:20:41.390Z,0.80
2022-10-16T02:23:13.126Z,1.05
2022-10-16T02:25:44.477Z,0.80
2022-10-16T02:28:18.901Z,1.00
2022-10-16T02:31:09.136Z,1.10
2022-10-16T02:33:39.227Z,0.82
2022-10-16T02:36:06.646Z,0.70
2022-10-16T02:38:33.700Z,0.80
2022-10-16T02:41:00.351Z,0.82
2022-10-16T02:43:27.430Z,0.70
2022-10-16T02:45:54.195Z,0.85
2022-10-16T02:48:20.844Z,1.08
2022-10-16T02:50:47.405Z,0.88
2022-10-16T02:53:14.031Z,0.80
2022-10-16T02:55:40.590Z,1.00
2022-10-16T02:58:07.139Z,0.80
2022-10-16T03:00:33.757Z,0.80
2022-10-16T03:03:00.351Z,0.93
2022-10-16T03:05:27.003Z,0.85
2022-10-16T03:07:53.843Z,0.80
2022-10-16T03:10:20.559Z,1.30
2022-10-16T03:12:47.127Z,0.80
2022-10-16T03:15:13.679Z,0.80
2022-10-16T03:17:40.251Z,0.70
2022-10-16T03:20:07.342Z,0.82
2022-10-16T03:22:34.071Z,1.00
2022-10-16T03:25:00.675Z,0.80
2022-10-16T03:27:27.478Z,1.00
2022-10-16T03:29:54.315Z,0.70
2022-10-16T03:32:21.342Z,1.00
2022-10-16T03:34:47.890Z,1.00
2022-10-16T03:37:14.508Z,1.00
2022-10-16T03:39:41.112Z,1.10
2022-10-16T03:42:07.788Z,1.10
2022-10-16T03:44:34.413Z,0.98
2022-10-16T03:47:01.037Z,0.98
2022-10-16T03:49:27.606Z,0.95
2022-10-16T03:51:54.225Z,0.90
2022-10-16T03:54:20.789Z,0.98
2022-10-16T03:56:47.391Z,1.20
2022-10-16T03:59:13.934Z,1.08
2022-10-16T04:01:41.153Z,0.93
2022-10-16T04:04:07.693Z,1.13
2022-10-16T04:06:34.264Z,0.82
2022-10-16T04:09:00.878Z,1.25
2022-10-16T04:11:27.522Z,1.10
2022-10-16T04:13:54.146Z,1.02
2022-10-16T04:16:21.241Z,0.85
2022-10-16T04:18:47.881Z,0.93
2022-10-16T04:21:14.415Z,1.00
2022-10-16T04:23:40.988Z,1.17
2022-10-16T04:26:07.546Z,1.30
2022-10-16T04:28:34.171Z,1.02
2022-10-16T04:31:00.761Z,1.10
2022-10-16T04:33:27.409Z,1.35
2022-10-16T04:35:58.961Z,1.20
2022-10-16T04:38:26.155Z,0.98
2022-10-16T04:40:53.566Z,1.40
2022-10-16T04:43:20.538Z,1.13
2022-10-16T04:45:47.167Z,1.20
2022-10-16T04:48:13.825Z,1.15
2022-10-16T04:50:40.436Z,0.93
2022-10-16T04:53:08.334Z,1.00
2022-10-16T04:55:34.960Z,0.90
2022-10-16T04:58:01.662Z,1.10
2022-10-16T05:00:28.264Z,1.00
2022-10-16T05:02:54.940Z,1.45
2022-10-16T05:05:21.944Z,1.38
2022-10-16T05:07:49.184Z,1.05
2022-10-16T05:10:15.880Z,1.00
2022-10-16T05:12:42.451Z,1.58
2022-10-16T05:15:09.632Z,1.20
2022-10-16T05:17:38.055Z,1.30
2022-10-16T05:20:06.881Z,1.30
2022-10-16T05:22:33.421Z,1.48
2022-10-16T05:25:00.005Z,1.40
2022-10-16T05:27:26.781Z,1.30
2022-10-16T05:29:53.590Z,1.48
2022-10-16T05:32:20.426Z,1.48
2022-10-16T05:34:47.057Z,1.35
2022-10-16T05:37:13.866Z,1.15
2022-10-16T05:39:40.825Z,1.20
2022-10-16T05:42:07.508Z,1.20
2022-10-16T05:47:05.996Z,1.30
2022-10-16T05:49:32.574Z,2.05
2022-10-16T05:51:59.177Z,1.52
2022-10-16T05:54:25.745Z,1.40
2022-10-16T05:56:52.292Z,1.13
2022-10-16T05:59:18.882Z,1.30
2022-10-16T06:01:45.472Z,1.25
2022-10-16T06:06:43.564Z,1.25
2022-10-16T06:09:10.713Z,1.40
2022-10-16T06:11:37.414Z,1.13
2022-10-16T06:14:07.706Z,1.38
2022-10-16T06:16:36.549Z,1.83
2022-10-16T06:19:07.121Z,1.00
2022-10-16T06:21:33.927Z,1.60
2022-10-16T06:24:00.520Z,2.20
2022-10-16T06:26:30.051Z,1.30
2022-10-16T06:28:58.410Z,1.10
2022-10-16T06:31:28.647Z,1.27
2022-10-16T06:33:55.876Z,1.10
2022-10-16T06:36:22.903Z,1.00
2022-10-16T06:38:49.526Z,0.90
2022-10-16T06:41:19.675Z,1.10
2022-10-16T06:43:48.293Z,0.70
2022-10-16T06:46:19.171Z,1.37
2022-10-16T06:48:45.865Z,0.80
2022-10-16T06:51:23.796Z,0.80
2022-10-16T06:54:08.191Z,1.98
2022-10-16T06:56:35.380Z,0.90
2022-10-16T06:59:02.739Z,0.73
2022-10-16T07:01:30.017Z,0.75
2022-10-16T07:03:56.836Z,0.77
2022-10-16T07:06:25.421Z,0.68
2022-10-16T07:08:52.688Z,0.60
2022-10-16T07:11:21.995Z,0.60
2022-10-16T07:13:54.325Z,1.00
2022-10-16T07:16:25.184Z,0.70
2022-10-16T07:18:55.267Z,0.60
2022-10-16T07:21:23.801Z,1.20
2022-10-16T07:23:59.371Z,0.77
2022-10-16T07:26:27.313Z,0.63
2022-10-16T07:28:53.963Z,0.80
2022-10-16T07:31:22.193Z,0.60
2022-10-16T07:33:49.215Z,0.82
2022-10-16T07:36:17.839Z,0.60
2022-10-16T07:38:45.181Z,0.67
2022-10-16T07:41:14.261Z,0.50
2022-10-16T07:43:40.966Z,0.60
2022-10-16T07:46:08.005Z,0.50
2022-10-16T07:48:35.973Z,0.63
2022-10-16T07:51:05.731Z,0.50
2022-10-16T07:53:33.293Z,0.75
2022-10-16T07:56:06.797Z,0.50
2022-10-16T07:58:35.060Z,0.50
2022-10-16T08:01:06.111Z,0.60
2022-10-16T08:03:33.820Z,0.68
2022-10-16T08:06:01.860Z,0.60
2022-10-16T08:08:29.094Z,0.60
2022-10-16T08:10:55.914Z,0.50
2022-10-16T08:13:22.610Z,0.60
2022-10-16T08:15:49.483Z,1.25
2022-10-16T08:18:16.873Z,0.60
2022-10-16T08:20:44.333Z,0.60
2022-10-16T08:23:12.889Z,2.30
2022-10-16T08:25:40.546Z,0.80
2022-10-16T08:28:08.853Z,0.75
2022-10-16T08:30:35.698Z,0.90
2022-10-16T08:33:02.800Z,1.30
2022-10-16T08:35:29.526Z,0.82
2022-10-16T08:37:56.397Z,0.70
2022-10-16T08:40:27.562Z,0.60
2022-10-16T08:42:57.158Z,0.70
2022-10-16T08:45:33.202Z,0.60
2022-10-16T08:48:22.501Z,0.80
2022-10-16T08:53:26.481Z,1.25
2022-10-16T08:55:54.886Z,1.30
2022-10-16T08:58:27.402Z,0.85
2022-10-16T09:00:59.521Z,0.80
2022-10-16T09:04:04.251Z,0.85
2022-10-16T09:06:36.703Z,0.80
2022-10-16T09:09:40.920Z,1.25
2022-10-16T09:12:10.519Z,0.80
2022-10-16T09:14:41.925Z,0.82
2022-10-16T09:17:36.029Z,1.40
2022-10-16T09:20:27.137Z,1.10
2022-10-16T09:23:15.134Z,0.90
2022-10-16T09:25:45.608Z,1.20
2022-10-16T09:28:12.495Z,0.82
2022-10-16T09:30:40.593Z,0.82
2022-10-16T09:33:10.644Z,1.08
2022-10-16T09:35:45.836Z,1.10
2022-10-16T09:38:29.281Z,1.10
2022-10-16T09:41:02.372Z,0.80
2022-10-16T09:43:40.270Z,1.10
2022-10-16T09:46:08.450Z,0.95
2022-10-16T09:48:45.146Z,1.20
2022-10-16T09:51:21.815Z,1.20
2022-10-16T09:53:49.534Z,0.90
2022-10-16T09:56:43.367Z,1.02
2022-10-16T09:59:16.963Z,1.25
2022-10-16T10:01:49.714Z,0.98
2022-10-16T10:04:16.720Z,1.00
2022-10-16T10:07:03.627Z,0.95
2022-10-16T10:09:39.862Z,0.90
2022-10-16T10:12:19.712Z,1.10
2022-10-16T10:14:51.604Z,1.10
2022-10-16T10:17:21.517Z,1.20
2022-10-16T10:19:51.422Z,1.00
2022-10-16T10:22:21.242Z,0.80
2022-10-16T10:25:13.765Z,1.02
2022-10-16T10:27:55.279Z,0.90
2022-10-16T10:30:31.066Z,1.17
2022-10-16T10:33:13.097Z,0.75
2022-10-16T10:35:50.502Z,0.73
2022-10-16T10:38:20.026Z,1.00
2022-10-16T10:41:11.446Z,0.70
2022-10-16T10:43:50.391Z,0.80
2022-10-16T10:46:43.316Z,0.70
2022-10-16T10:49:23.928Z,0.90
2022-10-16T10:52:14.703Z,0.90
2022-10-16T10:55:11.134Z,0.60
2022-10-16T10:57:40.635Z,0.63
2022-10-16T11:00:34.389Z,0.75
2022-10-16T11:03:09.965Z,0.50
2022-10-16T11:05:45.276Z,0.60
2022-10-16T11:08:14.647Z,0.50
2022-10-16T11:13:22.716Z,0.38
2022-10-16T11:15:52.004Z,0.60
2022-10-16T11:21:03.733Z,0.70
2022-10-16T11:23:34.005Z,0.70
2022-10-16T11:26:12.887Z,0.60
2022-10-16T11:29:00.323Z,0.63
2022-10-16T11:31:31.244Z,0.50
2022-10-16T11:34:20.384Z,0.63
2022-10-16T11:37:13.543Z,0.40
2022-10-16T11:39:42.970Z,0.60
2022-10-16T11:42:17.745Z,0.50
2022-10-16T11:44:56.216Z,0.60
2022-10-16T11:50:57.137Z,0.50
2022-10-16T11:53:44.938Z,0.60
2022-10-16T11:56:20.705Z,0.68
2022-10-16T11:59:02.472Z,0.40
2022-10-16T12:01:54.888Z,0.55
2022-10-16T12:04:59.768Z,0.55
2022-10-16T12:07:48.161Z,0.45
2022-10-16T12:10:26.693Z,0.60
2022-10-16T12:12:55.108Z,0.52
2022-10-16T12:15:40.510Z,0.52
2022-10-16T12:18:23.678Z,0.55
2022-10-16T12:21:05.516Z,0.70
2022-10-16T12:23:33.938Z,0.50
2022-10-16T12:26:03.293Z,0.40
2022-10-16T12:28:32.921Z,0.50
2022-10-16T12:31:06.461Z,0.50
2022-10-16T12:33:36.308Z,0.50
2022-10-16T12:36:09.862Z,0.60
2022-10-16T12:38:52.999Z,0.50
2022-10-16T12:41:40.934Z,0.60
2022-10-16T12:44:27.415Z,0.70
2022-10-16T12:46:54.086Z,0.70
2022-10-16T12:49:31.440Z,0.50
2022-10-16T12:51:58.945Z,0.65
2022-10-16T12:54:25.542Z,0.70
2022-10-16T12:57:19.793Z,0.50
2022-10-16T13:00:08.372Z,0.70
2022-10-16T13:02:42.476Z,0.60
2022-10-16T13:05:11.929Z,0.60
2022-10-16T13:07:48.294Z,0.68
2022-10-16T13:10:44.393Z,0.40
2022-10-16T13:13:17.426Z,0.50
2022-10-16T13:15:59.674Z,0.50
2022-10-16T13:19:06.423Z,0.60
2022-10-16T13:21:48.479Z,0.60
2022-10-16T13:24:24.077Z,0.50
2022-10-16T13:27:12.011Z,0.60
2022-10-16T13:29:42.235Z,0.70
2022-10-16T13:32:13.803Z,1.17
2022-10-16T13:34:49.649Z,0.60
2022-10-16T13:37:26.399Z,0.65
2022-10-16T13:40:09.992Z,0.60
2022-10-16T13:42:36.731Z,0.70
2022-10-16T13:45:03.395Z,0.47
2022-10-16T13:47:31.245Z,0.73
2022-10-16T13:50:13.729Z,0.82
2022-10-16T13:52:40.588Z,0.70
2022-10-16T13:55:19.143Z,0.60
2022-10-16T13:57:46.154Z,0.68
2022-10-16T14:00:24.642Z,0.70
2022-10-16T14:03:05.953Z,0.80
2022-10-16T14:05:33.241Z,0.70
2022-10-16T14:08:01.156Z,0.60
2022-10-16T14:10:33.749Z,0.50
2022-10-16T14:13:06.005Z,0.65
2022-10-16T14:15:35.373Z,0.60
2022-10-16T14:18:02.895Z,0.80
2022-10-16T14:20:32.353Z,0.68
2022-10-16T14:23:01.392Z,0.80
2022-10-16T14:25:30.819Z,0.63
2022-10-16T14:28:19.681Z,0.50
2022-10-16T14:31:21.263Z,1.00
2022-10-16T14:33:47.888Z,0.73
2022-10-16T14:36:15.932Z,0.80
2022-10-16T14:38:49.290Z,0.80
2022-10-16T14:41:16.284Z,0.90
2022-10-16T14:43:47.478Z,0.95
2022-10-16T14:49:01.426Z,0.95
2022-10-16T14:51:28.408Z,0.98
2022-10-16T14:53:59.164Z,1.10
2022-10-16T14:56:33.162Z,1.02
2022-10-16T14:59:00.730Z,1.20
2022-10-16T15:01:27.434Z,1.10
2022-10-16T15:03:55.942Z,1.52
2022-10-16T15:06:23.259Z,1.03
2022-10-16T15:08:50.009Z,1.40
2022-10-16T15:11:20.622Z,1.30
2022-10-16T15:13:47.728Z,1.10
2022-10-16T15:16:17.494Z,1.48
2022-10-16T15:18:44.634Z,1.10
2022-10-16T15:21:41.376Z,1.30
2022-10-16T15:24:16.463Z,1.50
2022-10-16T15:26:47.126Z,1.50
2022-10-16T15:29:14.116Z,1.35
2022-10-16T15:31:43.505Z,1.40
2022-10-16T15:34:11.339Z,1.48
2022-10-16T15:36:39.419Z,1.60
2022-10-16T15:39:20.762Z,1.30
2022-10-16T15:41:51.961Z,1.83
2022-10-16T15:44:19.391Z,1.35
2022-10-16T15:46:46.212Z,1.40
2022-10-16T15:49:12.811Z,1.42
2022-10-16T15:51:40.458Z,1.15
2022-10-16T15:54:07.043Z,1.40
2022-10-16T15:56:34.406Z,1.60
2022-10-16T15:59:02.909Z,1.50
2022-10-16T16:01:30.577Z,1.33
2022-10-16T16:03:57.288Z,1.58
2022-10-16T16:06:26.917Z,1.65
2022-10-16T16:08:53.770Z,1.98
2022-10-16T16:11:20.857Z,1.45
2022-10-16T16:13:47.462Z,1.90
2022-10-16T16:16:18.076Z,1.60
2022-10-16T16:18:45.510Z,1.50
2022-10-16T16:21:13.542Z,1.80
2022-10-16T16:23:40.398Z,1.40
2022-10-16T16:26:08.766Z,1.67
2022-10-16T16:28:35.668Z,1.90
2022-10-16T16:31:02.482Z,1.70
2022-10-16T16:33:29.175Z,2.00
2022-10-16T16:36:00.562Z,2.05
2022-10-16T16:38:27.737Z,1.83
2022-10-16T16:40:56.332Z,2.15
2022-10-16T16:43:27.767Z,1.80
2022-10-16T16:45:55.469Z,3.63
2022-10-16T16:48:22.477Z,8.73
2022-10-16T16:50:49.414Z,8.05
2022-10-16T16:53:16.393Z,8.70
2022-10-16T16:55:43.001Z,7.78
2022-10-16T16:58:09.641Z,4.57
2022-10-16T17:00:36.230Z,5.15
2022-10-16T17:03:03.017Z,4.70
2022-10-16T17:05:29.783Z,4.47
2022-10-16T17:07:56.424Z,4.80
2022-10-16T17:10:23.048Z,4.18
2022-10-16T17:12:49.779Z,7.10
2022-10-16T17:15:16.685Z,5.90
2022-10-16T17:17:43.475Z,6.38
2022-10-16T17:20:11.364Z,9.32
2022-10-16T17:22:38.009Z,6.07
2022-10-16T17:25:05.045Z,6.90
2022-10-16T17:27:31.739Z,7.30
2022-10-16T17:29:58.350Z,6.03
2022-10-16T17:32:25.334Z,5.70
2022-10-16T17:34:52.241Z,5.43
2022-10-16T17:37:18.980Z,6.32
2022-10-16T17:39:45.671Z,6.63
2022-10-16T17:42:12.253Z,6.93
2022-10-16T17:44:38.894Z,8.27
2022-10-16T17:47:05.583Z,9.00
2022-10-16T17:49:32.217Z,8.55
2022-10-16T17:52:01.870Z,8.30
2022-10-16T17:54:28.471Z,8.23
2022-10-16T17:56:55.144Z,7.80
2022-10-16T17:59:23.232Z,7.20
2022-10-16T18:01:50.425Z,7.00
2022-10-16T18:04:17.315Z,6.63
2022-10-16T18:06:45.711Z,6.90
2022-10-16T18:09:15.099Z,6.47
2022-10-16T18:14:08.575Z,5.63
2022-10-16T18:16:36.756Z,6.00
2022-10-16T18:19:03.556Z,5.20
2022-10-16T18:21:30.252Z,6.15
2022-10-16T18:23:59.218Z,5.65
2022-10-16T18:26:26.613Z,6.13
2022-10-16T18:28:55.271Z,5.43
2022-10-16T18:31:23.367Z,6.13
2022-10-16T18:33:51.367Z,6.32
2022-10-16T18:36:29.658Z,5.90
2022-10-16T18:38:57.405Z,6.18
2022-10-16T18:41:24.232Z,6.35
2022-10-16T18:43:51.174Z,6.68
2022-10-16T18:46:20.696Z,6.03
2022-10-16T18:48:48.346Z,5.95
2022-10-16T18:51:22.129Z,6.45
2022-10-16T18:53:52.007Z,5.57
2022-10-16T18:56:20.307Z,5.70
2022-10-16T18:58:50.867Z,5.53
2022-10-16T19:01:22.894Z,5.07
2022-10-16T19:03:54.285Z,4.93
2022-10-16T19:06:21.195Z,5.03
2022-10-16T19:08:47.823Z,4.80
2022-10-16T19:11:17.545Z,4.57
2022-10-16T19:13:45.123Z,4.63
2022-10-16T19:16:21.435Z,5.40
2022-10-16T19:18:50.337Z,5.70
2022-10-16T19:21:17.862Z,4.43
2022-10-16T19:23:44.784Z,4.88
2022-10-16T19:26:17.901Z,5.93
2022-10-16T19:28:45.421Z,4.57
2022-10-16T19:31:17.884Z,4.88
2022-10-16T19:33:46.682Z,5.45
2022-10-16T19:36:14.359Z,5.38
2022-10-16T19:38:42.060Z,6.13
2022-10-16T19:41:11.845Z,6.60
2022-10-16T19:43:39.360Z,9.32
2022-10-16T19:46:08.628Z,7.93
2022-10-16T19:48:35.363Z,8.80
2022-10-16T19:51:02.591Z,8.73
2022-10-16T19:53:29.502Z,8.13
2022-10-16T19:55:56.708Z,7.72
2022-10-16T19:58:24.023Z,8.43
2022-10-16T20:00:50.941Z,8.38
2022-10-16T20:03:18.280Z,8.02
2022-10-16T20:05:55.317Z,8.80
2022-10-16T20:08:22.295Z,7.80
2022-10-16T20:10:54.003Z,7.90
2022-10-16T20:13:22.503Z,8.68
2022-10-16T20:15:49.692Z,7.70
2022-10-16T20:18:17.188Z,8.43
2022-10-16T20:20:46.193Z,7.78
2022-10-16T20:23:12.869Z,7.80
2022-10-16T20:25:41.613Z,7.85
2022-10-16T20:28:11.793Z,8.45
2022-10-16T20:30:41.848Z,9.40
2022-10-16T20:33:08.571Z,8.07
2022-10-16T20:35:40.244Z,7.18
2022-10-16T20:38:07.621Z,7.68
2022-10-16T20:40:39.567Z,7.57
2022-10-16T20:43:07.867Z,7.90
2022-10-16T20:45:34.465Z,8.68
2022-10-16T20:48:01.144Z,7.20
2022-10-16T20:50:31.445Z,7.00
2022-10-16T20:52:59.833Z,7.63
2022-10-16T20:55:27.279Z,6.97
2022-10-16T20:57:54.146Z,6.38
2022-10-16T21:00:20.948Z,6.00
2022-10-16T21:02:51.373Z,5.90
2022-10-16T21:05:18.998Z,6.32
2022-10-16T21:07:46.184Z,6.97
2022-10-16T21:10:13.077Z,6.35
2022-10-16T21:12:39.747Z,5.90
2022-10-16T21:15:14.902Z,6.05
2022-10-16T21:17:42.163Z,6.60
2022-10-16T21:20:09.028Z,5.47
2022-10-16T21:22:35.731Z,5.13
2022-10-16T21:25:02.411Z,4.95
2022-10-16T21:27:29.045Z,5.72
2022-10-16T21:29:55.656Z,6.57
2022-10-16T21:32:22.204Z,5.35
2022-10-16T21:34:48.903Z,5.15
2022-10-16T21:37:15.499Z,6.53
2022-10-16T21:39:42.102Z,5.40
2022-10-16T21:42:08.670Z,5.45
2022-10-16T21:44:35.429Z,4.90
2022-10-16T21:47:02.008Z,5.78
2022-10-16T21:49:28.684Z,6.07
2022-10-16T21:51:55.287Z,5.00
2022-10-16T21:54:24.322Z,6.18
2022-10-16T21:56:51.101Z,5.28
2022-10-16T21:59:18.217Z,4.70
2022-10-16T22:01:44.889Z,5.35
2022-10-16T22:04:13.140Z,4.07
2022-10-16T22:06:40.329Z,4.05
2022-10-16T22:09:07.413Z,3.80
2022-10-16T22:11:37.143Z,4.18
2022-10-16T22:14:10.631Z,4.85
2022-10-16T22:16:38.319Z,3.55
2022-10-16T22:19:07.453Z,3.90
2022-10-16T22:21:39.364Z,5.03
2022-10-16T22:24:07.014Z,3.90
2022-10-16T22:26:34.016Z,3.88
2022-10-16T22:29:00.696Z,4.07
2022-10-16T22:31:27.445Z,4.80
2022-10-16T22:33:57.951Z,4.45
2022-10-16T22:36:24.914Z,4.72
2022-10-16T22:38:51.886Z,4.45
2022-10-16T22:41:18.885Z,5.03
2022-10-16T22:43:50.266Z,4.78
2022-10-16T22:46:23.225Z,5.57
2022-10-16T22:48:50.073Z,5.50
2022-10-16T22:51:17.583Z,7.80
2022-10-16T22:53:45.850Z,6.03
2022-10-16T22:56:13.456Z,5.88
2022-10-16T22:58:40.088Z,5.80
2022-10-16T23:01:17.510Z,6.05
2022-10-16T23:03:44.162Z,6.70
2022-10-16T23:06:10.762Z,6.10
2022-10-16T23:08:37.418Z,5.80
2022-10-16T23:11:09.654Z,6.05
2022-10-16T23:13:38.129Z,4.90
2022-10-16T23:16:06.653Z,5.22
2022-10-16T23:18:36.061Z,4.85
2022-10-16T23:23:37.794Z,5.13
2022-10-16T23:26:12.417Z,4.80
2022-10-16T23:28:39.589Z,6.00
2022-10-16T23:31:07.454Z,4.93
2022-10-16T23:33:35.661Z,4.70
2022-10-16T23:36:07.419Z,5.20
2022-10-16T23:38:34.578Z,4.93
2022-10-16T23:41:01.189Z,4.85
2022-10-16T23:43:27.817Z,4.72
2022-10-16T23:45:54.646Z,4.45
2022-10-16T23:48:21.225Z,6.55
2022-10-16T23:50:47.862Z,3.75
2022-10-16T23:53:15.185Z,4.43
2022-10-16T23:55:42.032Z,4.03
2022-10-16T23:58:08.707Z,4.55
